Silverton, Oregon
Current Conditions -  °F | °C
As of 5:03 PM on Wednesday 17 Dec 2014 (Local Time) from KSLE Reporting Station
Overcast Overcast  
Wind Chill: 50°   Ceiling: 3400
Heat Index: 50°   Visibility: 10mi
Dew Point: 45°   Wind: 12mph
Humidity: 83%   Direction: 170°S
Pressure: 29.89"   Gusts: NA
Location:  45°N, 122.78°W
Report Text: KSLE 180103Z 17010KT 10SM SCT024 OVC034 10/07 A2989 RMK AO2 T01000072
Loading
Personal Weather Stations






























Interactive Weather Map New forecast layout! Learn more

10-Day Weather Forecast

Advertisements
Track Severe Weather on mobile